sensor_id;sensor_type;location;lat;lon;timestamp;P1;durP1;ratioP1;P2;durP2;ratioP2
48703;SDS011;34502;51.296;16.918;2023-02-01T00:00:48;9.18;;;2.15;;
48703;SDS011;34502;51.296;16.918;2023-02-01T00:03:14;9.35;;;2.30;;
48703;SDS011;34502;51.296;16.918;2023-02-01T00:05:40;9.40;;;2.17;;
48703;SDS011;34502;51.296;16.918;2023-02-01T00:08:06;10.73;;;2.30;;
48703;SDS011;34502;51.296;16.918;2023-02-01T00:10:33;6.18;;;1.58;;
48703;SDS011;34502;51.296;16.918;2023-02-01T00:12:59;12.38;;;1.88;;
48703;SDS011;34502;51.296;16.918;2023-02-01T00:15:25;8.13;;;2.00;;
48703;SDS011;34502;51.296;16.918;2023-02-01T00:17:53;7.93;;;1.90;;
48703;SDS011;34502;51.296;16.918;2023-02-01T00:20:19;6.20;;;2.03;;
48703;SDS011;34502;51.296;16.918;2023-02-01T00:22:45;7.05;;;2.38;;
48703;SDS011;34502;51.296;16.918;2023-02-01T00:25:11;8.35;;;2.05;;
48703;SDS011;34502;51.296;16.918;2023-02-01T00:27:38;11.90;;;2.65;;
48703;SDS011;34502;51.296;16.918;2023-02-01T00:30:04;11.65;;;2.30;;
48703;SDS011;34502;51.296;16.918;2023-02-01T00:32:30;9.48;;;3.00;;
48703;SDS011;34502;51.296;16.918;2023-02-01T00:34:57;13.65;;;3.63;;
48703;SDS011;34502;51.296;16.918;2023-02-01T00:37:23;12.65;;;3.60;;
48703;SDS011;34502;51.296;16.918;2023-02-01T00:39:49;7.50;;;2.30;;
48703;SDS011;34502;51.296;16.918;2023-02-01T00:42:15;8.23;;;2.60;;
48703;SDS011;34502;51.296;16.918;2023-02-01T00:44:41;10.10;;;2.63;;
48703;SDS011;34502;51.296;16.918;2023-02-01T00:47:07;15.77;;;3.40;;
48703;SDS011;34502;51.296;16.918;2023-02-01T00:49:33;9.43;;;3.10;;
48703;SDS011;34502;51.296;16.918;2023-02-01T00:51:59;12.93;;;3.20;;
48703;SDS011;34502;51.296;16.918;2023-02-01T00:54:25;11.55;;;4.18;;
48703;SDS011;34502;51.296;16.918;2023-02-01T00:56:52;22.60;;;4.20;;
48703;SDS011;34502;51.296;16.918;2023-02-01T00:59:18;13.77;;;3.67;;
48703;SDS011;34502;51.296;16.918;2023-02-01T01:01:44;12.00;;;2.10;;
48703;SDS011;34502;51.296;16.918;2023-02-01T01:04:10;15.90;;;3.60;;
48703;SDS011;34502;51.296;16.918;2023-02-01T01:06:36;11.93;;;2.45;;
48703;SDS011;34502;51.296;16.918;2023-02-01T01:09:03;9.85;;;2.90;;
48703;SDS011;34502;51.296;16.918;2023-02-01T01:11:32;8.52;;;2.20;;
48703;SDS011;34502;51.296;16.918;2023-02-01T01:13:59;7.70;;;2.20;;
48703;SDS011;34502;51.296;16.918;2023-02-01T01:16:26;9.70;;;2.35;;
48703;SDS011;34502;51.296;16.918;2023-02-01T01:18:54;15.90;;;2.90;;
48703;SDS011;34502;51.296;16.918;2023-02-01T01:21:20;14.93;;;3.28;;
48703;SDS011;34502;51.296;16.918;2023-02-01T01:23:46;11.82;;;2.45;;
48703;SDS011;34502;51.296;16.918;2023-02-01T01:26:16;9.13;;;1.98;;
48703;SDS011;34502;51.296;16.918;2023-02-01T01:28:44;10.30;;;2.33;;
48703;SDS011;34502;51.296;16.918;2023-02-01T01:31:11;7.82;;;2.53;;
48703;SDS011;34502;51.296;16.918;2023-02-01T01:33:38;19.05;;;4.18;;
48703;SDS011;34502;51.296;16.918;2023-02-01T01:36:05;13.15;;;3.35;;
48703;SDS011;34502;51.296;16.918;2023-02-01T01:38:32;9.45;;;3.03;;
48703;SDS011;34502;51.296;16.918;2023-02-01T01:40:58;7.10;;;2.10;;
48703;SDS011;34502;51.296;16.918;2023-02-01T01:43:24;5.90;;;2.25;;
48703;SDS011;34502;51.296;16.918;2023-02-01T01:45:50;9.23;;;1.70;;
48703;SDS011;34502;51.296;16.918;2023-02-01T01:48:26;7.13;;;1.55;;
48703;SDS011;34502;51.296;16.918;2023-02-01T01:50:55;6.00;;;1.73;;
48703;SDS011;34502;51.296;16.918;2023-02-01T01:53:28;7.15;;;2.25;;
48703;SDS011;34502;51.296;16.918;2023-02-01T01:55:59;6.20;;;1.50;;
48703;SDS011;34502;51.296;16.918;2023-02-01T01:58:26;7.38;;;1.75;;
48703;SDS011;34502;51.296;16.918;2023-02-01T02:00:53;6.82;;;2.30;;
48703;SDS011;34502;51.296;16.918;2023-02-01T02:03:27;7.68;;;2.33;;
48703;SDS011;34502;51.296;16.918;2023-02-01T02:05:59;7.85;;;1.70;;
48703;SDS011;34502;51.296;16.918;2023-02-01T02:08:27;8.98;;;1.90;;
48703;SDS011;34502;51.296;16.918;2023-02-01T02:10:54;4.90;;;1.73;;
48703;SDS011;34502;51.296;16.918;2023-02-01T02:27:01;6.32;;;1.88;;
48703;SDS011;34502;51.296;16.918;2023-02-01T02:35:24;7.32;;;2.08;;
48703;SDS011;34502;51.296;16.918;2023-02-01T02:40:51;8.60;;;2.17;;
48703;SDS011;34502;51.296;16.918;2023-02-01T02:43:28;14.35;;;2.63;;
48703;SDS011;34502;51.296;16.918;2023-02-01T02:46:25;13.55;;;2.42;;
48703;SDS011;34502;51.296;16.918;2023-02-01T02:49:20;16.13;;;2.65;;
48703;SDS011;34502;51.296;16.918;2023-02-01T02:51:54;17.25;;;3.78;;
48703;SDS011;34502;51.296;16.918;2023-02-01T02:54:42;15.40;;;3.40;;
48703;SDS011;34502;51.296;16.918;2023-02-01T02:57:21;17.67;;;3.03;;
48703;SDS011;34502;51.296;16.918;2023-02-01T03:00:12;11.25;;;3.10;;
48703;SDS011;34502;51.296;16.918;2023-02-01T03:03:04;17.65;;;4.80;;
48703;SDS011;34502;51.296;16.918;2023-02-01T03:05:50;20.45;;;3.72;;
48703;SDS011;34502;51.296;16.918;2023-02-01T03:08:24;15.63;;;4.70;;
48703;SDS011;34502;51.296;16.918;2023-02-01T03:16:11;22.65;;;4.93;;
48703;SDS011;34502;51.296;16.918;2023-02-01T03:18:53;17.42;;;3.85;;
48703;SDS011;34502;51.296;16.918;2023-02-01T03:21:40;13.73;;;3.28;;
48703;SDS011;34502;51.296;16.918;2023-02-01T03:24:16;19.30;;;4.37;;
48703;SDS011;34502;51.296;16.918;2023-02-01T03:26:58;14.35;;;4.05;;
48703;SDS011;34502;51.296;16.918;2023-02-01T03:29:37;21.30;;;3.83;;
48703;SDS011;34502;51.296;16.918;2023-02-01T03:32:15;19.88;;;3.70;;
48703;SDS011;34502;51.296;16.918;2023-02-01T03:34:42;18.75;;;3.38;;
48703;SDS011;34502;51.296;16.918;2023-02-01T03:37:09;19.67;;;5.13;;
48703;SDS011;34502;51.296;16.918;2023-02-01T03:39:39;18.33;;;4.28;;
48703;SDS011;34502;51.296;16.918;2023-02-01T03:42:16;15.35;;;3.00;;
48703;SDS011;34502;51.296;16.918;2023-02-01T03:44:50;20.05;;;4.10;;
48703;SDS011;34502;51.296;16.918;2023-02-01T03:47:34;24.23;;;4.28;;
48703;SDS011;34502;51.296;16.918;2023-02-01T03:50:16;18.65;;;3.10;;
48703;SDS011;34502;51.296;16.918;2023-02-01T03:52:45;22.60;;;3.35;;
48703;SDS011;34502;51.296;16.918;2023-02-01T03:55:17;19.20;;;3.45;;
48703;SDS011;34502;51.296;16.918;2023-02-01T03:57:50;24.65;;;4.03;;
48703;SDS011;34502;51.296;16.918;2023-02-01T04:00:22;22.38;;;2.75;;
48703;SDS011;34502;51.296;16.918;2023-02-01T04:02:49;18.83;;;3.28;;
48703;SDS011;34502;51.296;16.918;2023-02-01T04:05:16;18.20;;;3.22;;
48703;SDS011;34502;51.296;16.918;2023-02-01T04:07:42;18.70;;;3.28;;
48703;SDS011;34502;51.296;16.918;2023-02-01T04:10:09;17.42;;;3.08;;
48703;SDS011;34502;51.296;16.918;2023-02-01T04:12:35;15.95;;;3.30;;
48703;SDS011;34502;51.296;16.918;2023-02-01T04:15:02;20.35;;;3.95;;
48703;SDS011;34502;51.296;16.918;2023-02-01T04:17:28;16.33;;;3.10;;
48703;SDS011;34502;51.296;16.918;2023-02-01T04:19:54;11.23;;;2.85;;
48703;SDS011;34502;51.296;16.918;2023-02-01T04:22:21;13.13;;;2.67;;
48703;SDS011;34502;51.296;16.918;2023-02-01T04:24:47;19.52;;;3.22;;
48703;SDS011;34502;51.296;16.918;2023-02-01T04:27:13;15.68;;;2.92;;
48703;SDS011;34502;51.296;16.918;2023-02-01T04:29:40;21.23;;;5.93;;
48703;SDS011;34502;51.296;16.918;2023-02-01T04:32:06;18.65;;;3.88;;
48703;SDS011;34502;51.296;16.918;2023-02-01T04:34:32;18.65;;;3.08;;
48703;SDS011;34502;51.296;16.918;2023-02-01T04:36:58;19.27;;;3.72;;
48703;SDS011;34502;51.296;16.918;2023-02-01T04:39:24;22.35;;;4.38;;
48703;SDS011;34502;51.296;16.918;2023-02-01T04:41:50;19.73;;;4.00;;
48703;SDS011;34502;51.296;16.918;2023-02-01T04:44:17;20.83;;;3.80;;
48703;SDS011;34502;51.296;16.918;2023-02-01T04:46:45;17.77;;;3.35;;
48703;SDS011;34502;51.296;16.918;2023-02-01T04:49:11;17.42;;;3.30;;
48703;SDS011;34502;51.296;16.918;2023-02-01T04:51:38;14.52;;;2.60;;
48703;SDS011;34502;51.296;16.918;2023-02-01T04:54:05;26.10;;;4.85;;
48703;SDS011;34502;51.296;16.918;2023-02-01T04:56:31;15.10;;;3.17;;
48703;SDS011;34502;51.296;16.918;2023-02-01T04:58:59;27.77;;;4.05;;
48703;SDS011;34502;51.296;16.918;2023-02-01T05:01:27;15.73;;;3.42;;
48703;SDS011;34502;51.296;16.918;2023-02-01T05:03:53;19.08;;;3.83;;
48703;SDS011;34502;51.296;16.918;2023-02-01T05:06:20;14.35;;;3.30;;
48703;SDS011;34502;51.296;16.918;2023-02-01T05:08:46;19.85;;;3.33;;
48703;SDS011;34502;51.296;16.918;2023-02-01T05:11:12;14.65;;;2.67;;
48703;SDS011;34502;51.296;16.918;2023-02-01T05:13:58;14.13;;;3.17;;
48703;SDS011;34502;51.296;16.918;2023-02-01T05:16:24;18.05;;;3.25;;
48703;SDS011;34502;51.296;16.918;2023-02-01T05:18:51;12.55;;;4.28;;
48703;SDS011;34502;51.296;16.918;2023-02-01T05:21:17;11.40;;;2.65;;
48703;SDS011;34502;51.296;16.918;2023-02-01T05:23:43;18.35;;;3.75;;
48703;SDS011;34502;51.296;16.918;2023-02-01T05:26:28;13.32;;;3.15;;
48703;SDS011;34502;51.296;16.918;2023-02-01T05:28:55;13.40;;;3.42;;
48703;SDS011;34502;51.296;16.918;2023-02-01T05:31:21;18.88;;;4.13;;
48703;SDS011;34502;51.296;16.918;2023-02-01T05:33:47;22.80;;;3.80;;
48703;SDS011;34502;51.296;16.918;2023-02-01T05:36:13;17.63;;;3.78;;
48703;SDS011;34502;51.296;16.918;2023-02-01T05:38:39;15.27;;;3.92;;
48703;SDS011;34502;51.296;16.918;2023-02-01T05:41:06;16.85;;;3.20;;
48703;SDS011;34502;51.296;16.918;2023-02-01T05:43:32;13.50;;;3.20;;
48703;SDS011;34502;51.296;16.918;2023-02-01T05:45:58;15.60;;;2.95;;
48703;SDS011;34502;51.296;16.918;2023-02-01T05:48:24;11.73;;;3.13;;
48703;SDS011;34502;51.296;16.918;2023-02-01T05:50:50;18.77;;;3.58;;
48703;SDS011;34502;51.296;16.918;2023-02-01T05:53:16;13.27;;;2.50;;
48703;SDS011;34502;51.296;16.918;2023-02-01T05:55:43;19.40;;;3.35;;
48703;SDS011;34502;51.296;16.918;2023-02-01T05:58:09;19.08;;;4.00;;
48703;SDS011;34502;51.296;16.918;2023-02-01T06:00:35;17.05;;;3.30;;
48703;SDS011;34502;51.296;16.918;2023-02-01T06:03:01;14.60;;;2.70;;
48703;SDS011;34502;51.296;16.918;2023-02-01T06:05:27;15.55;;;3.92;;
48703;SDS011;34502;51.296;16.918;2023-02-01T06:07:53;16.33;;;3.17;;
48703;SDS011;34502;51.296;16.918;2023-02-01T06:10:19;11.40;;;2.90;;
48703;SDS011;34502;51.296;16.918;2023-02-01T06:12:46;20.95;;;3.15;;
48703;SDS011;34502;51.296;16.918;2023-02-01T06:15:12;14.88;;;2.45;;
48703;SDS011;34502;51.296;16.918;2023-02-01T06:17:40;19.60;;;3.10;;
48703;SDS011;34502;51.296;16.918;2023-02-01T06:20:08;15.02;;;3.30;;
48703;SDS011;34502;51.296;16.918;2023-02-01T06:22:35;18.33;;;3.25;;
48703;SDS011;34502;51.296;16.918;2023-02-01T06:25:05;15.50;;;3.72;;
48703;SDS011;34502;51.296;16.918;2023-02-01T06:27:32;10.38;;;2.42;;
48703;SDS011;34502;51.296;16.918;2023-02-01T06:29:59;14.07;;;3.53;;
48703;SDS011;34502;51.296;16.918;2023-02-01T06:32:25;15.20;;;3.10;;
48703;SDS011;34502;51.296;16.918;2023-02-01T06:34:51;19.05;;;3.83;;
48703;SDS011;34502;51.296;16.918;2023-02-01T06:37:18;21.17;;;3.28;;
48703;SDS011;34502;51.296;16.918;2023-02-01T06:39:44;16.63;;;3.28;;
48703;SDS011;34502;51.296;16.918;2023-02-01T06:42:10;16.95;;;3.63;;
48703;SDS011;34502;51.296;16.918;2023-02-01T06:44:36;12.85;;;2.75;;
48703;SDS011;34502;51.296;16.918;2023-02-01T06:47:03;24.30;;;4.22;;
48703;SDS011;34502;51.296;16.918;2023-02-01T06:49:29;20.85;;;3.33;;
48703;SDS011;34502;51.296;16.918;2023-02-01T06:51:55;13.73;;;3.08;;
48703;SDS011;34502;51.296;16.918;2023-02-01T06:54:21;14.82;;;3.33;;
48703;SDS011;34502;51.296;16.918;2023-02-01T06:56:47;13.15;;;2.75;;
48703;SDS011;34502;51.296;16.918;2023-02-01T06:59:14;17.25;;;3.28;;
48703;SDS011;34502;51.296;16.918;2023-02-01T07:01:40;10.75;;;2.80;;
48703;SDS011;34502;51.296;16.918;2023-02-01T07:04:06;21.08;;;3.38;;
48703;SDS011;34502;51.296;16.918;2023-02-01T07:06:33;20.35;;;3.67;;
48703;SDS011;34502;51.296;16.918;2023-02-01T07:08:59;18.05;;;3.95;;
48703;SDS011;34502;51.296;16.918;2023-02-01T07:11:26;16.10;;;3.92;;
48703;SDS011;34502;51.296;16.918;2023-02-01T07:13:53;17.92;;;3.95;;
48703;SDS011;34502;51.296;16.918;2023-02-01T07:16:19;13.70;;;3.33;;
48703;SDS011;34502;51.296;16.918;2023-02-01T07:18:46;13.80;;;3.42;;
48703;SDS011;34502;51.296;16.918;2023-02-01T07:21:12;15.48;;;3.35;;
48703;SDS011;34502;51.296;16.918;2023-02-01T07:23:38;16.77;;;4.15;;
48703;SDS011;34502;51.296;16.918;2023-02-01T07:26:05;12.02;;;3.03;;
48703;SDS011;34502;51.296;16.918;2023-02-01T07:28:33;17.15;;;3.70;;
48703;SDS011;34502;51.296;16.918;2023-02-01T07:31:11;19.52;;;3.22;;
48703;SDS011;34502;51.296;16.918;2023-02-01T07:33:40;18.85;;;3.63;;
48703;SDS011;34502;51.296;16.918;2023-02-01T14:47:45;8.73;;;3.13;;
48703;SDS011;34502;51.296;16.918;2023-02-01T14:50:27;9.20;;;3.40;;
48703;SDS011;34502;51.296;16.918;2023-02-01T14:55:41;11.63;;;3.10;;
48703;SDS011;34502;51.296;16.918;2023-02-01T14:58:32;9.60;;;2.80;;
48703;SDS011;34502;51.296;16.918;2023-02-01T15:01:02;8.40;;;3.50;;
48703;SDS011;34502;51.296;16.918;2023-02-01T15:06:23;8.85;;;2.70;;
48703;SDS011;34502;51.296;16.918;2023-02-01T15:09:02;8.32;;;2.60;;
48703;SDS011;34502;51.296;16.918;2023-02-01T15:14:26;11.20;;;2.45;;
48703;SDS011;34502;51.296;16.918;2023-02-01T15:16:52;10.02;;;2.45;;
48703;SDS011;34502;51.296;16.918;2023-02-01T15:19:23;7.75;;;2.78;;
48703;SDS011;34502;51.296;16.918;2023-02-01T15:21:52;9.38;;;2.22;;
48703;SDS011;34502;51.296;16.918;2023-02-01T15:24:24;12.43;;;3.17;;
48703;SDS011;34502;51.296;16.918;2023-02-01T15:26:52;8.07;;;2.88;;
48703;SDS011;34502;51.296;16.918;2023-02-01T15:29:20;10.55;;;2.50;;
48703;SDS011;34502;51.296;16.918;2023-02-01T15:31:51;7.53;;;2.70;;
48703;SDS011;34502;51.296;16.918;2023-02-01T15:34:18;4.85;;;2.50;;
48703;SDS011;34502;51.296;16.918;2023-02-01T15:36:45;12.25;;;3.78;;
48703;SDS011;34502;51.296;16.918;2023-02-01T15:41:54;8.00;;;2.70;;
48703;SDS011;34502;51.296;16.918;2023-02-01T15:47:07;10.25;;;2.92;;
48703;SDS011;34502;51.296;16.918;2023-02-01T15:49:42;8.95;;;2.55;;
48703;SDS011;34502;51.296;16.918;2023-02-01T15:52:43;8.50;;;3.22;;
48703;SDS011;34502;51.296;16.918;2023-02-01T15:55:08;10.40;;;3.20;;
48703;SDS011;34502;51.296;16.918;2023-02-01T15:57:47;11.43;;;3.45;;
48703;SDS011;34502;51.296;16.918;2023-02-01T16:02:57;7.35;;;1.90;;
48703;SDS011;34502;51.296;16.918;2023-02-01T16:08:31;6.03;;;2.00;;
48703;SDS011;34502;51.296;16.918;2023-02-01T16:10:53;6.60;;;2.70;;
48703;SDS011;34502;51.296;16.918;2023-02-01T16:13:27;9.48;;;3.33;;
48703;SDS011;34502;51.296;16.918;2023-02-01T16:15:53;9.88;;;2.90;;
48703;SDS011;34502;51.296;16.918;2023-02-01T16:18:19;10.63;;;3.28;;
48703;SDS011;34502;51.296;16.918;2023-02-01T16:20:47;13.55;;;4.18;;
48703;SDS011;34502;51.296;16.918;2023-02-01T16:23:13;6.80;;;2.60;;
48703;SDS011;34502;51.296;16.918;2023-02-01T16:25:39;7.75;;;2.83;;
48703;SDS011;34502;51.296;16.918;2023-02-01T16:28:06;11.65;;;4.82;;
48703;SDS011;34502;51.296;16.918;2023-02-01T16:30:33;6.72;;;3.30;;
48703;SDS011;34502;51.296;16.918;2023-02-01T16:32:59;8.98;;;3.72;;
48703;SDS011;34502;51.296;16.918;2023-02-01T16:35:34;5.65;;;2.13;;
48703;SDS011;34502;51.296;16.918;2023-02-01T16:38:02;7.95;;;2.80;;
48703;SDS011;34502;51.296;16.918;2023-02-01T16:40:33;16.10;;;3.22;;
48703;SDS011;34502;51.296;16.918;2023-02-01T16:43:00;6.55;;;2.88;;
48703;SDS011;34502;51.296;16.918;2023-02-01T16:45:27;6.85;;;2.78;;
48703;SDS011;34502;51.296;16.918;2023-02-01T16:47:54;9.02;;;3.13;;
48703;SDS011;34502;51.296;16.918;2023-02-01T16:50:21;6.40;;;3.17;;
48703;SDS011;34502;51.296;16.918;2023-02-01T16:52:48;9.85;;;3.60;;
48703;SDS011;34502;51.296;16.918;2023-02-01T16:55:16;9.20;;;3.53;;
48703;SDS011;34502;51.296;16.918;2023-02-01T16:57:43;8.70;;;3.92;;
48703;SDS011;34502;51.296;16.918;2023-02-01T17:00:10;10.80;;;3.80;;
48703;SDS011;34502;51.296;16.918;2023-02-01T17:02:38;16.25;;;5.38;;
48703;SDS011;34502;51.296;16.918;2023-02-01T17:05:05;12.77;;;3.78;;
48703;SDS011;34502;51.296;16.918;2023-02-01T17:07:31;12.93;;;5.72;;
48703;SDS011;34502;51.296;16.918;2023-02-01T17:09:57;7.20;;;3.28;;
48703;SDS011;34502;51.296;16.918;2023-02-01T17:12:25;11.25;;;3.75;;
48703;SDS011;34502;51.296;16.918;2023-02-01T17:14:54;11.00;;;3.90;;
48703;SDS011;34502;51.296;16.918;2023-02-01T17:17:21;11.95;;;4.05;;
48703;SDS011;34502;51.296;16.918;2023-02-01T17:19:49;10.00;;;4.38;;
48703;SDS011;34502;51.296;16.918;2023-02-01T17:22:19;10.80;;;3.97;;
48703;SDS011;34502;51.296;16.918;2023-02-01T17:24:45;8.45;;;4.18;;
48703;SDS011;34502;51.296;16.918;2023-02-01T17:27:12;10.10;;;4.68;;
48703;SDS011;34502;51.296;16.918;2023-02-01T17:29:38;12.98;;;4.15;;
48703;SDS011;34502;51.296;16.918;2023-02-01T17:32:06;9.32;;;4.32;;
48703;SDS011;34502;51.296;16.918;2023-02-01T17:34:40;8.25;;;3.60;;
48703;SDS011;34502;51.296;16.918;2023-02-01T17:37:08;9.70;;;4.65;;
48703;SDS011;34502;51.296;16.918;2023-02-01T17:39:51;15.40;;;4.32;;
48703;SDS011;34502;51.296;16.918;2023-02-01T17:42:20;12.48;;;5.18;;
48703;SDS011;34502;51.296;16.918;2023-02-01T17:44:48;14.20;;;5.75;;
48703;SDS011;34502;51.296;16.918;2023-02-01T17:47:15;10.30;;;5.13;;
48703;SDS011;34502;51.296;16.918;2023-02-01T17:49:41;12.07;;;5.75;;
48703;SDS011;34502;51.296;16.918;2023-02-01T17:52:17;14.70;;;6.88;;
48703;SDS011;34502;51.296;16.918;2023-02-01T17:54:43;12.07;;;6.00;;
48703;SDS011;34502;51.296;16.918;2023-02-01T17:57:11;10.05;;;5.45;;
48703;SDS011;34502;51.296;16.918;2023-02-01T17:59:38;11.27;;;5.25;;
48703;SDS011;34502;51.296;16.918;2023-02-01T18:02:11;14.65;;;6.35;;
48703;SDS011;34502;51.296;16.918;2023-02-01T18:04:43;13.35;;;5.75;;
48703;SDS011;34502;51.296;16.918;2023-02-01T18:07:10;13.93;;;6.20;;
48703;SDS011;34502;51.296;16.918;2023-02-01T18:09:36;11.30;;;5.90;;
48703;SDS011;34502;51.296;16.918;2023-02-01T18:12:05;15.93;;;5.93;;
48703;SDS011;34502;51.296;16.918;2023-02-01T18:14:35;19.92;;;7.03;;
48703;SDS011;34502;51.296;16.918;2023-02-01T18:17:02;17.75;;;6.38;;
48703;SDS011;34502;51.296;16.918;2023-02-01T18:19:28;14.27;;;6.15;;
48703;SDS011;34502;51.296;16.918;2023-02-01T18:21:54;18.58;;;6.32;;
48703;SDS011;34502;51.296;16.918;2023-02-01T18:24:21;15.48;;;6.18;;
48703;SDS011;34502;51.296;16.918;2023-02-01T18:26:49;15.25;;;6.13;;
48703;SDS011;34502;51.296;16.918;2023-02-01T18:29:16;16.17;;;6.63;;
48703;SDS011;34502;51.296;16.918;2023-02-01T18:31:45;18.38;;;7.07;;
48703;SDS011;34502;51.296;16.918;2023-02-01T18:34:16;17.35;;;5.93;;
48703;SDS011;34502;51.296;16.918;2023-02-01T18:36:48;14.63;;;6.13;;
48703;SDS011;34502;51.296;16.918;2023-02-01T18:39:14;16.52;;;5.95;;
48703;SDS011;34502;51.296;16.918;2023-02-01T18:41:47;12.35;;;5.18;;
48703;SDS011;34502;51.296;16.918;2023-02-01T18:44:15;16.65;;;5.72;;
48703;SDS011;34502;51.296;16.918;2023-02-01T18:46:42;10.70;;;5.03;;
48703;SDS011;34502;51.296;16.918;2023-02-01T18:49:08;12.18;;;5.35;;
48703;SDS011;34502;51.296;16.918;2023-02-01T18:51:37;17.30;;;6.57;;
48703;SDS011;34502;51.296;16.918;2023-02-01T18:54:03;12.95;;;5.53;;
48703;SDS011;34502;51.296;16.918;2023-02-01T18:56:30;15.07;;;5.97;;
48703;SDS011;34502;51.296;16.918;2023-02-01T18:58:56;13.32;;;4.63;;
48703;SDS011;34502;51.296;16.918;2023-02-01T19:01:24;10.50;;;4.80;;
48703;SDS011;34502;51.296;16.918;2023-02-01T19:03:50;8.05;;;4.40;;
48703;SDS011;34502;51.296;16.918;2023-02-01T19:06:16;10.32;;;3.75;;
48703;SDS011;34502;51.296;16.918;2023-02-01T19:08:45;13.88;;;5.05;;
48703;SDS011;34502;51.296;16.918;2023-02-01T19:11:11;12.77;;;5.20;;
48703;SDS011;34502;51.296;16.918;2023-02-01T19:13:38;13.57;;;4.85;;
48703;SDS011;34502;51.296;16.918;2023-02-01T19:16:05;9.80;;;4.47;;
48703;SDS011;34502;51.296;16.918;2023-02-01T19:18:32;13.90;;;4.72;;
48703;SDS011;34502;51.296;16.918;2023-02-01T19:21:07;11.00;;;4.78;;
48703;SDS011;34502;51.296;16.918;2023-02-01T19:23:36;12.57;;;4.68;;
48703;SDS011;34502;51.296;16.918;2023-02-01T19:26:03;14.02;;;4.68;;
48703;SDS011;34502;51.296;16.918;2023-02-01T19:28:34;10.77;;;4.95;;
48703;SDS011;34502;51.296;16.918;2023-02-01T19:31:04;9.57;;;4.13;;
48703;SDS011;34502;51.296;16.918;2023-02-01T19:33:31;9.88;;;4.25;;
48703;SDS011;34502;51.296;16.918;2023-02-01T19:35:58;9.63;;;3.95;;
48703;SDS011;34502;51.296;16.918;2023-02-01T19:38:24;13.38;;;4.50;;
48703;SDS011;34502;51.296;16.918;2023-02-01T19:40:51;8.00;;;3.80;;
48703;SDS011;34502;51.296;16.918;2023-02-01T19:43:19;13.05;;;6.75;;
48703;SDS011;34502;51.296;16.918;2023-02-01T19:45:45;7.30;;;3.92;;
48703;SDS011;34502;51.296;16.918;2023-02-01T19:48:11;10.05;;;4.50;;
48703;SDS011;34502;51.296;16.918;2023-02-01T19:50:37;8.63;;;4.15;;
48703;SDS011;34502;51.296;16.918;2023-02-01T19:53:04;13.05;;;7.45;;
48703;SDS011;34502;51.296;16.918;2023-02-01T19:55:30;9.68;;;4.03;;
48703;SDS011;34502;51.296;16.918;2023-02-01T19:57:57;10.75;;;5.13;;
48703;SDS011;34502;51.296;16.918;2023-02-01T20:00:23;14.18;;;5.93;;
48703;SDS011;34502;51.296;16.918;2023-02-01T20:02:49;6.18;;;2.72;;
48703;SDS011;34502;51.296;16.918;2023-02-01T20:05:16;4.88;;;2.05;;
48703;SDS011;34502;51.296;16.918;2023-02-01T20:07:43;8.05;;;3.80;;
48703;SDS011;34502;51.296;16.918;2023-02-01T20:10:10;12.77;;;5.30;;
48703;SDS011;34502;51.296;16.918;2023-02-01T20:12:36;11.25;;;5.70;;
48703;SDS011;34502;51.296;16.918;2023-02-01T20:15:03;14.43;;;8.75;;
48703;SDS011;34502;51.296;16.918;2023-02-01T20:17:30;4.13;;;2.00;;
48703;SDS011;34502;51.296;16.918;2023-02-01T20:19:57;10.23;;;5.07;;
48703;SDS011;34502;51.296;16.918;2023-02-01T20:22:23;11.02;;;7.45;;
48703;SDS011;34502;51.296;16.918;2023-02-01T20:24:49;4.35;;;2.70;;
48703;SDS011;34502;51.296;16.918;2023-02-01T20:27:16;7.18;;;5.32;;
48703;SDS011;34502;51.296;16.918;2023-02-01T20:29:42;6.60;;;4.22;;
48703;SDS011;34502;51.296;16.918;2023-02-01T20:32:08;6.75;;;3.78;;
48703;SDS011;34502;51.296;16.918;2023-02-01T20:34:34;4.70;;;2.30;;
48703;SDS011;34502;51.296;16.918;2023-02-01T20:37:01;4.38;;;2.40;;
48703;SDS011;34502;51.296;16.918;2023-02-01T20:39:27;3.05;;;2.17;;
48703;SDS011;34502;51.296;16.918;2023-02-01T20:41:53;7.10;;;2.60;;
48703;SDS011;34502;51.296;16.918;2023-02-01T20:44:20;5.35;;;2.55;;
48703;SDS011;34502;51.296;16.918;2023-02-01T20:46:46;3.67;;;1.50;;
48703;SDS011;34502;51.296;16.918;2023-02-01T20:49:12;4.95;;;2.15;;
48703;SDS011;34502;51.296;16.918;2023-02-01T20:51:39;7.38;;;2.78;;
48703;SDS011;34502;51.296;16.918;2023-02-01T20:54:05;5.28;;;2.85;;
48703;SDS011;34502;51.296;16.918;2023-02-01T20:56:31;2.67;;;1.42;;
48703;SDS011;34502;51.296;16.918;2023-02-01T20:58:58;4.18;;;2.00;;
48703;SDS011;34502;51.296;16.918;2023-02-01T21:01:35;7.07;;;2.92;;
48703;SDS011;34502;51.296;16.918;2023-02-01T21:04:15;11.88;;;5.80;;
48703;SDS011;34502;51.296;16.918;2023-02-01T21:06:43;10.02;;;4.22;;
48703;SDS011;34502;51.296;16.918;2023-02-01T21:09:09;1.60;;;1.35;;
48703;SDS011;34502;51.296;16.918;2023-02-01T21:11:35;3.58;;;1.70;;
48703;SDS011;34502;51.296;16.918;2023-02-01T21:14:01;2.70;;;1.70;;
48703;SDS011;34502;51.296;16.918;2023-02-01T21:16:29;3.17;;;1.95;;
48703;SDS011;34502;51.296;16.918;2023-02-01T21:18:55;3.63;;;1.98;;
48703;SDS011;34502;51.296;16.918;2023-02-01T21:21:21;1.88;;;1.40;;
48703;SDS011;34502;51.296;16.918;2023-02-01T21:23:47;2.58;;;1.85;;
48703;SDS011;34502;51.296;16.918;2023-02-01T21:26:14;3.47;;;2.30;;
48703;SDS011;34502;51.296;16.918;2023-02-01T21:28:48;2.90;;;1.98;;
48703;SDS011;34502;51.296;16.918;2023-02-01T21:31:16;5.65;;;1.90;;
48703;SDS011;34502;51.296;16.918;2023-02-01T21:33:45;1.90;;;1.73;;
48703;SDS011;34502;51.296;16.918;2023-02-01T21:36:12;3.17;;;1.75;;
48703;SDS011;34502;51.296;16.918;2023-02-01T21:38:47;2.55;;;1.77;;
48703;SDS011;34502;51.296;16.918;2023-02-01T21:41:16;5.20;;;2.33;;
48703;SDS011;34502;51.296;16.918;2023-02-01T21:44:02;3.05;;;1.55;;
48703;SDS011;34502;51.296;16.918;2023-02-01T21:46:28;2.58;;;1.60;;
48703;SDS011;34502;51.296;16.918;2023-02-01T21:48:54;3.90;;;2.10;;
48703;SDS011;34502;51.296;16.918;2023-02-01T21:51:21;3.15;;;2.05;;
48703;SDS011;34502;51.296;16.918;2023-02-01T21:53:47;18.00;;;6.60;;
48703;SDS011;34502;51.296;16.918;2023-02-01T21:56:13;11.18;;;4.30;;
48703;SDS011;34502;51.296;16.918;2023-02-01T21:58:39;25.90;;;8.43;;
48703;SDS011;34502;51.296;16.918;2023-02-01T22:01:06;28.67;;;11.00;;
48703;SDS011;34502;51.296;16.918;2023-02-01T22:03:32;7.40;;;3.25;;
48703;SDS011;34502;51.296;16.918;2023-02-01T22:05:58;10.05;;;4.03;;
48703;SDS011;34502;51.296;16.918;2023-02-01T22:08:24;6.03;;;2.42;;
48703;SDS011;34502;51.296;16.918;2023-02-01T22:10:51;6.28;;;2.85;;
48703;SDS011;34502;51.296;16.918;2023-02-01T22:13:17;9.13;;;3.88;;
48703;SDS011;34502;51.296;16.918;2023-02-01T22:15:43;5.43;;;2.47;;
48703;SDS011;34502;51.296;16.918;2023-02-01T22:18:09;6.88;;;3.08;;
48703;SDS011;34502;51.296;16.918;2023-02-01T22:20:35;5.05;;;2.45;;
48703;SDS011;34502;51.296;16.918;2023-02-01T22:23:01;7.43;;;2.88;;
48703;SDS011;34502;51.296;16.918;2023-02-01T22:25:27;7.28;;;2.97;;
48703;SDS011;34502;51.296;16.918;2023-02-01T22:27:54;8.23;;;2.95;;
48703;SDS011;34502;51.296;16.918;2023-02-01T22:30:20;6.85;;;3.25;;
48703;SDS011;34502;51.296;16.918;2023-02-01T22:32:47;9.77;;;4.65;;